createdAt,value
2022-11-03T06:15:46.781Z,8.69
2022-11-03T06:25:46.925Z,8.12
2022-11-03T06:35:46.855Z,8.19
2022-11-03T06:45:46.849Z,8.54
2022-11-03T06:55:47.096Z,8.81
2022-11-03T07:05:47.037Z,8.72
2022-11-03T07:15:47.065Z,8.72
2022-11-03T07:25:47.011Z,8.80
2022-11-03T07:36:13.919Z,8.82
2022-11-03T07:45:47.092Z,8.92
2022-11-03T07:55:47.175Z,9.06
2022-11-03T08:05:47.063Z,9.24
2022-11-03T08:15:47.114Z,9.54
2022-11-03T08:25:47.023Z,9.79
2022-11-03T08:35:47.223Z,9.81
2022-11-03T08:45:47.073Z,10.26
2022-11-03T08:55:46.854Z,10.77
2022-11-03T09:05:47.034Z,10.99
2022-11-03T09:15:47.013Z,11.34
2022-11-03T09:25:47.211Z,11.58
2022-11-03T09:35:47.220Z,11.75
2022-11-03T09:45:47.212Z,11.90
2022-11-03T09:55:47.172Z,12.09
2022-11-03T10:05:47.126Z,12.75
2022-11-03T10:15:47.198Z,12.58
2022-11-03T10:25:47.104Z,12.19
2022-11-03T10:35:47.180Z,12.26
2022-11-03T10:45:47.108Z,12.33
2022-11-03T10:55:47.275Z,12.49
2022-11-03T11:05:47.214Z,12.52
2022-11-03T11:15:47.079Z,12.52
2022-11-03T11:25:47.148Z,12.52
2022-11-03T11:35:47.255Z,12.68
2022-11-03T11:45:47.274Z,12.81
2022-11-03T11:55:47.263Z,12.96
2022-11-03T12:05:47.121Z,12.96
2022-11-03T12:15:47.174Z,13.02
2022-11-03T12:25:47.143Z,13.02
2022-11-03T12:35:47.086Z,12.98
2022-11-03T12:45:47.173Z,12.90
2022-11-03T12:55:47.169Z,12.91
2022-11-03T13:05:47.327Z,12.92
2022-11-03T13:15:47.171Z,12.90
2022-11-03T13:25:47.363Z,12.86
2022-11-03T13:35:47.255Z,12.89
2022-11-03T13:45:47.306Z,12.78
2022-11-03T13:55:47.346Z,12.72
2022-11-03T14:05:47.151Z,12.66
2022-11-03T14:15:47.382Z,12.68
2022-11-03T14:25:55.721Z,12.65
2022-11-03T14:35:47.223Z,12.71
2022-11-03T14:45:47.307Z,12.93
2022-11-03T14:55:47.411Z,13.01
2022-11-03T15:05:47.272Z,12.91
2022-11-03T15:15:47.329Z,12.79
2022-11-03T15:25:47.442Z,12.11
2022-11-03T15:35:47.420Z,11.64
2022-11-03T15:45:47.415Z,11.32
2022-11-03T15:55:47.476Z,11.14
2022-11-03T16:05:47.328Z,11.31
2022-11-03T16:15:47.453Z,11.59
2022-11-03T16:25:47.364Z,11.62
2022-11-03T16:35:47.418Z,11.59
2022-11-03T16:45:47.392Z,11.70
2022-11-03T16:55:47.487Z,11.76
2022-11-03T17:05:47.482Z,11.83
2022-11-03T17:15:47.490Z,11.88
2022-11-03T17:25:47.555Z,11.84
2022-11-03T17:35:47.609Z,11.61
2022-11-03T17:45:47.532Z,11.59
2022-11-03T17:56:02.783Z,11.47
2022-11-03T18:05:47.529Z,11.48
2022-11-03T18:15:47.629Z,11.39
2022-11-03T18:25:47.689Z,11.51
2022-11-03T18:35:47.499Z,11.35
2022-11-03T18:45:47.550Z,11.35
2022-11-03T18:55:47.534Z,11.18
2022-11-03T19:05:47.694Z,11.05
2022-11-03T19:15:47.850Z,11.03
